sensor_id;sensor_type;location;lat;lon;timestamp;temperature;humidity
35457;DHT22;21575;51.538;-0.084;2022-09-27T00:01:04;11.20;99.90
35457;DHT22;21575;51.538;-0.084;2022-09-27T00:03:30;11.10;99.90
35457;DHT22;21575;51.538;-0.084;2022-09-27T00:08:32;11.10;99.90
35457;DHT22;21575;51.538;-0.084;2022-09-27T00:11:02;11.10;99.90
35457;DHT22;21575;51.538;-0.084;2022-09-27T00:13:28;11.10;99.90
35457;DHT22;21575;51.538;-0.084;2022-09-27T00:16:02;11.10;99.90
35457;DHT22;21575;51.538;-0.084;2022-09-27T00:18:31;11.10;99.90
35457;DHT22;21575;51.538;-0.084;2022-09-27T00:21:12;11.10;99.90
35457;DHT22;21575;51.538;-0.084;2022-09-27T00:23:38;11.10;99.90
35457;DHT22;21575;51.538;-0.084;2022-09-27T00:26:05;11.10;99.90
35457;DHT22;21575;51.538;-0.084;2022-09-27T00:28:31;11.20;99.90
35457;DHT22;21575;51.538;-0.084;2022-09-27T00:30:57;11.20;99.90
35457;DHT22;21575;51.538;-0.084;2022-09-27T00:33:24;11.20;99.90
35457;DHT22;21575;51.538;-0.084;2022-09-27T00:35:51;11.20;99.90
35457;DHT22;21575;51.538;-0.084;2022-09-27T00:38:16;11.20;99.90
35457;DHT22;21575;51.538;-0.084;2022-09-27T00:40:42;11.20;99.90
35457;DHT22;21575;51.538;-0.084;2022-09-27T00:43:19;11.20;99.90
35457;DHT22;21575;51.538;-0.084;2022-09-27T00:45:58;11.20;99.90
35457;DHT22;21575;51.538;-0.084;2022-09-27T00:48:27;11.20;99.90
35457;DHT22;21575;51.538;-0.084;2022-09-27T00:50:57;11.20;99.90
35457;DHT22;21575;51.538;-0.084;2022-09-27T00:53:34;11.20;99.90
35457;DHT22;21575;51.538;-0.084;2022-09-27T00:56:05;11.20;99.90
35457;DHT22;21575;51.538;-0.084;2022-09-27T00:58:36;11.20;99.90
35457;DHT22;21575;51.538;-0.084;2022-09-27T01:01:06;11.20;99.90
35457;DHT22;21575;51.538;-0.084;2022-09-27T01:03:59;11.10;99.90
35457;DHT22;21575;51.538;-0.084;2022-09-27T01:06:27;11.10;99.90
35457;DHT22;21575;51.538;-0.084;2022-09-27T01:08:53;11.10;99.90
35457;DHT22;21575;51.538;-0.084;2022-09-27T01:17:33;11.00;99.90
35457;DHT22;21575;51.538;-0.084;2022-09-27T01:26:11;11.00;99.90
35457;DHT22;21575;51.538;-0.084;2022-09-27T01:45:20;11.00;99.90
35457;DHT22;21575;51.538;-0.084;2022-09-27T01:47:55;11.00;99.90
35457;DHT22;21575;51.538;-0.084;2022-09-27T01:50:38;11.00;99.90
35457;DHT22;21575;51.538;-0.084;2022-09-27T01:53:08;11.00;99.90
35457;DHT22;21575;51.538;-0.084;2022-09-27T01:55:37;11.00;99.90
35457;DHT22;21575;51.538;-0.084;2022-09-27T02:00:53;10.90;99.90
35457;DHT22;21575;51.538;-0.084;2022-09-27T02:03:22;10.80;99.90
35457;DHT22;21575;51.538;-0.084;2022-09-27T02:05:54;10.70;99.90
35457;DHT22;21575;51.538;-0.084;2022-09-27T02:10:48;10.60;99.90
35457;DHT22;21575;51.538;-0.084;2022-09-27T02:13:22;10.60;99.90
35457;DHT22;21575;51.538;-0.084;2022-09-27T02:18:59;10.40;99.90
35457;DHT22;21575;51.538;-0.084;2022-09-27T02:21:41;10.40;99.90
35457;DHT22;21575;51.538;-0.084;2022-09-27T02:24:13;10.40;99.90
35457;DHT22;21575;51.538;-0.084;2022-09-27T02:26:48;10.30;99.90
35457;DHT22;21575;51.538;-0.084;2022-09-27T02:29:23;10.30;99.90
35457;DHT22;21575;51.538;-0.084;2022-09-27T02:31:52;10.20;99.90
35457;DHT22;21575;51.538;-0.084;2022-09-27T02:34:23;10.20;99.90
35457;DHT22;21575;51.538;-0.084;2022-09-27T02:36:50;10.20;99.90
35457;DHT22;21575;51.538;-0.084;2022-09-27T02:39:18;10.10;99.90
35457;DHT22;21575;51.538;-0.084;2022-09-27T02:41:44;10.10;99.90
35457;DHT22;21575;51.538;-0.084;2022-09-27T02:44:13;10.10;99.90
35457;DHT22;21575;51.538;-0.084;2022-09-27T02:58:31;9.90;99.90
35457;DHT22;21575;51.538;-0.084;2022-09-27T03:01:13;9.90;99.90
35457;DHT22;21575;51.538;-0.084;2022-09-27T03:06:54;9.80;99.90
35457;DHT22;21575;51.538;-0.084;2022-09-27T03:09:27;9.80;99.90
35457;DHT22;21575;51.538;-0.084;2022-09-27T03:11:53;9.80;99.90
35457;DHT22;21575;51.538;-0.084;2022-09-27T03:14:19;9.70;99.90
35457;DHT22;21575;51.538;-0.084;2022-09-27T03:16:45;9.70;99.90
35457;DHT22;21575;51.538;-0.084;2022-09-27T03:19:10;9.70;99.90
35457;DHT22;21575;51.538;-0.084;2022-09-27T03:21:36;9.70;99.90
35457;DHT22;21575;51.538;-0.084;2022-09-27T03:24:02;9.70;99.90
35457;DHT22;21575;51.538;-0.084;2022-09-27T03:26:28;9.60;99.90
35457;DHT22;21575;51.538;-0.084;2022-09-27T03:28:54;9.60;99.90
35457;DHT22;21575;51.538;-0.084;2022-09-27T03:31:19;9.60;99.90
35457;DHT22;21575;51.538;-0.084;2022-09-27T03:33:45;9.50;99.90
35457;DHT22;21575;51.538;-0.084;2022-09-27T03:36:12;9.50;99.90
35457;DHT22;21575;51.538;-0.084;2022-09-27T03:38:37;9.50;99.90
35457;DHT22;21575;51.538;-0.084;2022-09-27T03:41:03;9.50;99.90
35457;DHT22;21575;51.538;-0.084;2022-09-27T03:43:29;9.50;99.90
35457;DHT22;21575;51.538;-0.084;2022-09-27T03:45:55;9.50;99.90
35457;DHT22;21575;51.538;-0.084;2022-09-27T03:48:21;9.50;99.90
35457;DHT22;21575;51.538;-0.084;2022-09-27T03:50:46;9.50;99.90
35457;DHT22;21575;51.538;-0.084;2022-09-27T03:53:12;9.50;99.90
35457;DHT22;21575;51.538;-0.084;2022-09-27T03:55:38;9.40;99.90
35457;DHT22;21575;51.538;-0.084;2022-09-27T03:58:03;9.40;99.90
35457;DHT22;21575;51.538;-0.084;2022-09-27T04:00:29;9.40;99.90
35457;DHT22;21575;51.538;-0.084;2022-09-27T04:02:57;9.40;99.90
35457;DHT22;21575;51.538;-0.084;2022-09-27T04:05:24;9.40;99.90
35457;DHT22;21575;51.538;-0.084;2022-09-27T04:07:50;9.30;99.90
35457;DHT22;21575;51.538;-0.084;2022-09-27T04:10:16;9.40;99.90
35457;DHT22;21575;51.538;-0.084;2022-09-27T04:12:43;9.40;99.90
35457;DHT22;21575;51.538;-0.084;2022-09-27T04:15:09;9.30;99.90
35457;DHT22;21575;51.538;-0.084;2022-09-27T04:17:35;9.30;99.90
35457;DHT22;21575;51.538;-0.084;2022-09-27T04:20:02;9.30;99.90
35457;DHT22;21575;51.538;-0.084;2022-09-27T04:22:28;9.30;99.90
35457;DHT22;21575;51.538;-0.084;2022-09-27T04:24:54;9.30;99.90
35457;DHT22;21575;51.538;-0.084;2022-09-27T04:27:20;9.30;99.90
35457;DHT22;21575;51.538;-0.084;2022-09-27T04:29:46;9.30;99.90
35457;DHT22;21575;51.538;-0.084;2022-09-27T04:32:13;9.30;99.90
35457;DHT22;21575;51.538;-0.084;2022-09-27T04:34:39;9.30;99.90
35457;DHT22;21575;51.538;-0.084;2022-09-27T04:37:23;9.30;99.90
35457;DHT22;21575;51.538;-0.084;2022-09-27T04:39:49;9.30;99.90
35457;DHT22;21575;51.538;-0.084;2022-09-27T04:42:16;9.40;99.90
35457;DHT22;21575;51.538;-0.084;2022-09-27T04:44:42;9.40;99.90
35457;DHT22;21575;51.538;-0.084;2022-09-27T04:47:08;9.40;99.90
35457;DHT22;21575;51.538;-0.084;2022-09-27T04:49:34;9.40;99.90
35457;DHT22;21575;51.538;-0.084;2022-09-27T04:52:00;9.40;99.90
35457;DHT22;21575;51.538;-0.084;2022-09-27T04:54:25;9.50;99.90
35457;DHT22;21575;51.538;-0.084;2022-09-27T04:56:51;9.50;99.90
35457;DHT22;21575;51.538;-0.084;2022-09-27T04:59:17;9.50;99.90
35457;DHT22;21575;51.538;-0.084;2022-09-27T05:01:42;9.40;99.90
35457;DHT22;21575;51.538;-0.084;2022-09-27T05:04:09;9.40;99.90
35457;DHT22;21575;51.538;-0.084;2022-09-27T05:06:35;9.40;99.90
35457;DHT22;21575;51.538;-0.084;2022-09-27T05:09:01;9.40;99.90
35457;DHT22;21575;51.538;-0.084;2022-09-27T05:11:26;9.40;99.90
35457;DHT22;21575;51.538;-0.084;2022-09-27T05:13:52;9.40;99.90
35457;DHT22;21575;51.538;-0.084;2022-09-27T05:16:18;9.40;99.90
35457;DHT22;21575;51.538;-0.084;2022-09-27T05:18:44;9.50;99.90
35457;DHT22;21575;51.538;-0.084;2022-09-27T05:21:10;9.40;99.90
35457;DHT22;21575;51.538;-0.084;2022-09-27T05:23:37;9.50;99.90
35457;DHT22;21575;51.538;-0.084;2022-09-27T05:26:04;9.50;99.90
35457;DHT22;21575;51.538;-0.084;2022-09-27T05:28:29;9.50;99.90
35457;DHT22;21575;51.538;-0.084;2022-09-27T05:30:55;9.50;99.90
35457;DHT22;21575;51.538;-0.084;2022-09-27T05:33:21;9.50;99.90
35457;DHT22;21575;51.538;-0.084;2022-09-27T05:35:53;9.60;99.90
35457;DHT22;21575;51.538;-0.084;2022-09-27T05:38:19;9.60;99.90
35457;DHT22;21575;51.538;-0.084;2022-09-27T05:40:45;9.60;99.90
35457;DHT22;21575;51.538;-0.084;2022-09-27T05:43:12;9.60;99.90
35457;DHT22;21575;51.538;-0.084;2022-09-27T05:45:38;9.70;99.90
35457;DHT22;21575;51.538;-0.084;2022-09-27T05:48:04;9.70;99.90
35457;DHT22;21575;51.538;-0.084;2022-09-27T05:50:30;9.70;99.90
35457;DHT22;21575;51.538;-0.084;2022-09-27T05:52:56;9.70;99.90
35457;DHT22;21575;51.538;-0.084;2022-09-27T05:55:22;9.80;99.90
35457;DHT22;21575;51.538;-0.084;2022-09-27T05:58:04;9.80;99.90
35457;DHT22;21575;51.538;-0.084;2022-09-27T06:00:30;9.80;99.90
35457;DHT22;21575;51.538;-0.084;2022-09-27T06:02:58;9.80;99.90
35457;DHT22;21575;51.538;-0.084;2022-09-27T06:05:27;9.80;99.90
35457;DHT22;21575;51.538;-0.084;2022-09-27T06:08:04;9.80;99.90
35457;DHT22;21575;51.538;-0.084;2022-09-27T06:10:30;9.90;99.90
35457;DHT22;21575;51.538;-0.084;2022-09-27T06:13:09;9.90;99.90
35457;DHT22;21575;51.538;-0.084;2022-09-27T06:15:36;9.90;99.90
35457;DHT22;21575;51.538;-0.084;2022-09-27T06:18:09;10.00;99.90
35457;DHT22;21575;51.538;-0.084;2022-09-27T06:20:36;10.00;99.90
35457;DHT22;21575;51.538;-0.084;2022-09-27T06:23:09;10.10;99.90
35457;DHT22;21575;51.538;-0.084;2022-09-27T06:25:36;10.10;99.90
35457;DHT22;21575;51.538;-0.084;2022-09-27T06:28:03;10.10;99.90
35457;DHT22;21575;51.538;-0.084;2022-09-27T06:30:29;10.10;99.90
35457;DHT22;21575;51.538;-0.084;2022-09-27T06:32:59;10.20;99.90
35457;DHT22;21575;51.538;-0.084;2022-09-27T06:35:26;10.20;99.90
35457;DHT22;21575;51.538;-0.084;2022-09-27T06:37:52;10.20;99.90
35457;DHT22;21575;51.538;-0.084;2022-09-27T06:40:19;10.20;99.90
35457;DHT22;21575;51.538;-0.084;2022-09-27T06:42:45;10.30;99.90
35457;DHT22;21575;51.538;-0.084;2022-09-27T06:45:11;10.30;99.90
35457;DHT22;21575;51.538;-0.084;2022-09-27T06:47:37;10.30;99.90
35457;DHT22;21575;51.538;-0.084;2022-09-27T06:50:04;10.30;99.90
35457;DHT22;21575;51.538;-0.084;2022-09-27T06:52:34;10.40;99.90
35457;DHT22;21575;51.538;-0.084;2022-09-27T06:55:00;10.40;99.90
35457;DHT22;21575;51.538;-0.084;2022-09-27T06:57:26;10.40;99.90
35457;DHT22;21575;51.538;-0.084;2022-09-27T07:00:15;10.50;99.90
35457;DHT22;21575;51.538;-0.084;2022-09-27T07:02:54;10.50;99.90
35457;DHT22;21575;51.538;-0.084;2022-09-27T07:05:29;10.50;99.90
35457;DHT22;21575;51.538;-0.084;2022-09-27T07:07:56;10.60;99.90
35457;DHT22;21575;51.538;-0.084;2022-09-27T07:10:23;10.50;99.90
35457;DHT22;21575;51.538;-0.084;2022-09-27T07:12:49;10.60;99.90
35457;DHT22;21575;51.538;-0.084;2022-09-27T07:15:17;10.60;99.90
35457;DHT22;21575;51.538;-0.084;2022-09-27T07:17:43;10.60;99.90
35457;DHT22;21575;51.538;-0.084;2022-09-27T07:20:08;10.70;99.90
35457;DHT22;21575;51.538;-0.084;2022-09-27T07:22:43;10.70;99.90
35457;DHT22;21575;51.538;-0.084;2022-09-27T07:25:10;10.80;99.90
35457;DHT22;21575;51.538;-0.084;2022-09-27T07:27:36;10.80;99.90
35457;DHT22;21575;51.538;-0.084;2022-09-27T07:30:03;10.80;99.90
35457;DHT22;21575;51.538;-0.084;2022-09-27T07:32:29;10.80;99.90
35457;DHT22;21575;51.538;-0.084;2022-09-27T07:34:55;10.90;99.90
35457;DHT22;21575;51.538;-0.084;2022-09-27T07:37:21;10.90;99.90
35457;DHT22;21575;51.538;-0.084;2022-09-27T07:39:46;10.90;99.90
35457;DHT22;21575;51.538;-0.084;2022-09-27T07:42:12;11.00;99.90
35457;DHT22;21575;51.538;-0.084;2022-09-27T07:44:37;11.00;99.90
35457;DHT22;21575;51.538;-0.084;2022-09-27T07:47:06;11.10;99.90
35457;DHT22;21575;51.538;-0.084;2022-09-27T07:49:32;11.10;99.90
35457;DHT22;21575;51.538;-0.084;2022-09-27T07:51:58;11.20;99.90
35457;DHT22;21575;51.538;-0.084;2022-09-27T07:54:23;11.20;99.90
35457;DHT22;21575;51.538;-0.084;2022-09-27T07:56:49;11.20;99.90
35457;DHT22;21575;51.538;-0.084;2022-09-27T07:59:15;11.20;99.90
35457;DHT22;21575;51.538;-0.084;2022-09-27T08:01:40;11.30;99.90
35457;DHT22;21575;51.538;-0.084;2022-09-27T08:04:06;11.30;99.90
35457;DHT22;21575;51.538;-0.084;2022-09-27T08:06:31;11.40;99.90
35457;DHT22;21575;51.538;-0.084;2022-09-27T08:08:57;11.40;99.90
35457;DHT22;21575;51.538;-0.084;2022-09-27T08:11:24;11.40;99.90
35457;DHT22;21575;51.538;-0.084;2022-09-27T08:13:50;11.50;99.90
35457;DHT22;21575;51.538;-0.084;2022-09-27T08:16:17;11.50;99.90
35457;DHT22;21575;51.538;-0.084;2022-09-27T08:18:43;11.60;99.90
35457;DHT22;21575;51.538;-0.084;2022-09-27T08:21:08;11.60;99.90
35457;DHT22;21575;51.538;-0.084;2022-09-27T08:23:34;11.70;99.90
35457;DHT22;21575;51.538;-0.084;2022-09-27T08:26:01;11.70;99.90
35457;DHT22;21575;51.538;-0.084;2022-09-27T08:28:27;11.70;99.90
35457;DHT22;21575;51.538;-0.084;2022-09-27T08:30:53;11.80;99.90
35457;DHT22;21575;51.538;-0.084;2022-09-27T08:33:19;11.90;99.90
35457;DHT22;21575;51.538;-0.084;2022-09-27T08:35:44;12.00;99.90
35457;DHT22;21575;51.538;-0.084;2022-09-27T08:38:10;12.00;99.90
35457;DHT22;21575;51.538;-0.084;2022-09-27T08:46:21;12.20;99.90
35457;DHT22;21575;51.538;-0.084;2022-09-27T08:48:52;12.30;99.90
35457;DHT22;21575;51.538;-0.084;2022-09-27T08:51:20;12.30;99.90
35457;DHT22;21575;51.538;-0.084;2022-09-27T08:53:54;12.40;99.90
35457;DHT22;21575;51.538;-0.084;2022-09-27T08:56:22;12.40;99.90
35457;DHT22;21575;51.538;-0.084;2022-09-27T08:59:30;12.40;99.90
35457;DHT22;21575;51.538;-0.084;2022-09-27T09:01:58;12.50;99.90
35457;DHT22;21575;51.538;-0.084;2022-09-27T09:04:29;12.60;99.90
35457;DHT22;21575;51.538;-0.084;2022-09-27T09:07:31;12.70;99.90
35457;DHT22;21575;51.538;-0.084;2022-09-27T09:16:22;12.90;99.90
35457;DHT22;21575;51.538;-0.084;2022-09-27T09:21:44;13.00;99.90
35457;DHT22;21575;51.538;-0.084;2022-09-27T09:27:57;13.10;99.90
35457;DHT22;21575;51.538;-0.084;2022-09-27T09:30:55;13.10;99.90
35457;DHT22;21575;51.538;-0.084;2022-09-27T09:38:31;13.30;99.90
35457;DHT22;21575;51.538;-0.084;2022-09-27T09:41:14;13.40;99.90
35457;DHT22;21575;51.538;-0.084;2022-09-27T09:43:56;13.50;99.90
35457;DHT22;21575;51.538;-0.084;2022-09-27T09:46:38;13.50;99.90
35457;DHT22;21575;51.538;-0.084;2022-09-27T09:51:59;13.60;99.90
35457;DHT22;21575;51.538;-0.084;2022-09-27T09:54:32;13.60;99.90
35457;DHT22;21575;51.538;-0.084;2022-09-27T09:59:51;13.70;99.90
35457;DHT22;21575;51.538;-0.084;2022-09-27T10:02:35;13.70;99.90
35457;DHT22;21575;51.538;-0.084;2022-09-27T10:05:02;13.80;99.90
35457;DHT22;21575;51.538;-0.084;2022-09-27T10:07:30;13.90;99.90
35457;DHT22;21575;51.538;-0.084;2022-09-27T10:09:59;13.90;99.90
35457;DHT22;21575;51.538;-0.084;2022-09-27T10:12:27;13.90;99.90
35457;DHT22;21575;51.538;-0.084;2022-09-27T10:14:56;13.90;99.90
35457;DHT22;21575;51.538;-0.084;2022-09-27T10:17:26;13.90;99.90
35457;DHT22;21575;51.538;-0.084;2022-09-27T10:19:55;14.00;99.90
35457;DHT22;21575;51.538;-0.084;2022-09-27T10:22:48;14.10;99.90
35457;DHT22;21575;51.538;-0.084;2022-09-27T10:25:19;14.10;99.90
35457;DHT22;21575;51.538;-0.084;2022-09-27T10:27:49;14.20;99.90
35457;DHT22;21575;51.538;-0.084;2022-09-27T10:32:59;14.40;99.90
35457;DHT22;21575;51.538;-0.084;2022-09-27T10:35:39;14.40;99.90
35457;DHT22;21575;51.538;-0.084;2022-09-27T10:40:44;14.40;99.90
35457;DHT22;21575;51.538;-0.084;2022-09-27T10:46:34;14.30;99.90
35457;DHT22;21575;51.538;-0.084;2022-09-27T10:49:23;14.10;99.90
35457;DHT22;21575;51.538;-0.084;2022-09-27T10:51:53;14.00;99.90
35457;DHT22;21575;51.538;-0.084;2022-09-27T10:54:27;13.70;99.90
35457;DHT22;21575;51.538;-0.084;2022-09-27T10:57:04;13.30;99.90
35457;DHT22;21575;51.538;-0.084;2022-09-27T10:59:35;13.00;99.90
35457;DHT22;21575;51.538;-0.084;2022-09-27T11:02:05;12.70;99.90
35457;DHT22;21575;51.538;-0.084;2022-09-27T11:04:40;12.60;99.90
35457;DHT22;21575;51.538;-0.084;2022-09-27T11:07:15;12.40;99.90
35457;DHT22;21575;51.538;-0.084;2022-09-27T11:09:46;12.20;99.90
35457;DHT22;21575;51.538;-0.084;2022-09-27T11:12:13;12.10;99.90
35457;DHT22;21575;51.538;-0.084;2022-09-27T11:14:40;12.00;99.90
35457;DHT22;21575;51.538;-0.084;2022-09-27T11:22:52;12.20;99.90
35457;DHT22;21575;51.538;-0.084;2022-09-27T11:28:45;12.30;99.90
35457;DHT22;21575;51.538;-0.084;2022-09-27T11:34:22;12.30;99.90
35457;DHT22;21575;51.538;-0.084;2022-09-27T11:45:37;12.20;99.90
35457;DHT22;21575;51.538;-0.084;2022-09-27T11:48:29;12.30;99.90
35457;DHT22;21575;51.538;-0.084;2022-09-27T11:53:59;12.40;99.90
35457;DHT22;21575;51.538;-0.084;2022-09-27T11:59:45;12.60;99.90
35457;DHT22;21575;51.538;-0.084;2022-09-27T12:05:15;12.70;99.90
35457;DHT22;21575;51.538;-0.084;2022-09-27T12:10:17;12.90;99.90
35457;DHT22;21575;51.538;-0.084;2022-09-27T12:12:55;12.90;99.90
35457;DHT22;21575;51.538;-0.084;2022-09-27T12:15:31;13.00;99.90
35457;DHT22;21575;51.538;-0.084;2022-09-27T12:18:24;13.20;99.90
35457;DHT22;21575;51.538;-0.084;2022-09-27T12:20:51;13.20;99.90
35457;DHT22;21575;51.538;-0.084;2022-09-27T12:23:33;13.20;99.90
35457;DHT22;21575;51.538;-0.084;2022-09-27T12:26:10;13.30;99.90
35457;DHT22;21575;51.538;-0.084;2022-09-27T12:28:52;13.30;99.90
35457;DHT22;21575;51.538;-0.084;2022-09-27T12:31:42;13.30;99.90
35457;DHT22;21575;51.538;-0.084;2022-09-27T12:34:16;13.40;99.90
35457;DHT22;21575;51.538;-0.084;2022-09-27T12:36:50;13.40;99.90
35457;DHT22;21575;51.538;-0.084;2022-09-27T12:42:00;13.50;99.90
35457;DHT22;21575;51.538;-0.084;2022-09-27T12:44:38;13.60;99.90
35457;DHT22;21575;51.538;-0.084;2022-09-27T12:47:24;13.60;99.90
35457;DHT22;21575;51.538;-0.084;2022-09-27T12:50:29;13.80;99.90
35457;DHT22;21575;51.538;-0.084;2022-09-27T12:53:00;13.80;99.90
35457;DHT22;21575;51.538;-0.084;2022-09-27T12:58:48;13.50;99.90
35457;DHT22;21575;51.538;-0.084;2022-09-27T13:04:30;13.20;99.90
35457;DHT22;21575;51.538;-0.084;2022-09-27T13:07:22;13.00;99.90
35457;DHT22;21575;51.538;-0.084;2022-09-27T13:12:33;13.00;99.90
35457;DHT22;21575;51.538;-0.084;2022-09-27T13:15:06;13.00;99.90
35457;DHT22;21575;51.538;-0.084;2022-09-27T13:22:53;13.00;99.90
35457;DHT22;21575;51.538;-0.084;2022-09-27T13:25:51;13.10;99.90
35457;DHT22;21575;51.538;-0.084;2022-09-27T13:30:59;13.10;99.90
35457;DHT22;21575;51.538;-0.084;2022-09-27T13:36:33;13.20;99.90
35457;DHT22;21575;51.538;-0.084;2022-09-27T13:41:56;13.20;99.90
35457;DHT22;21575;51.538;-0.084;2022-09-27T13:47:32;13.30;99.90
35457;DHT22;21575;51.538;-0.084;2022-09-27T13:51:05;13.40;99.90
35457;DHT22;21575;51.538;-0.084;2022-09-27T13:55:47;13.60;99.90
35457;DHT22;21575;51.538;-0.084;2022-09-27T14:01:09;13.80;99.90
35457;DHT22;21575;51.538;-0.084;2022-09-27T14:03:36;13.90;99.90
35457;DHT22;21575;51.538;-0.084;2022-09-27T14:06:26;14.00;99.90
35457;DHT22;21575;51.538;-0.084;2022-09-27T14:08:59;14.10;99.90
35457;DHT22;21575;51.538;-0.084;2022-09-27T14:11:33;14.20;99.90
35457;DHT22;21575;51.538;-0.084;2022-09-27T14:14:02;14.30;99.90
35457;DHT22;21575;51.538;-0.084;2022-09-27T14:16:34;14.30;99.90
35457;DHT22;21575;51.538;-0.084;2022-09-27T14:19:01;14.30;99.90
35457;DHT22;21575;51.538;-0.084;2022-09-27T14:21:35;14.30;99.90
35457;DHT22;21575;51.538;-0.084;2022-09-27T14:26:46;14.30;99.90
35457;DHT22;21575;51.538;-0.084;2022-09-27T14:29:21;14.30;99.90
35457;DHT22;21575;51.538;-0.084;2022-09-27T14:32:01;14.30;99.90
35457;DHT22;21575;51.538;-0.084;2022-09-27T14:34:27;14.20;99.90
35457;DHT22;21575;51.538;-0.084;2022-09-27T14:36:53;14.20;99.90
35457;DHT22;21575;51.538;-0.084;2022-09-27T14:39:37;14.10;99.90
35457;DHT22;21575;51.538;-0.084;2022-09-27T14:42:15;14.10;99.90
35457;DHT22;21575;51.538;-0.084;2022-09-27T14:44:43;14.10;99.90
35457;DHT22;21575;51.538;-0.084;2022-09-27T14:47:14;14.00;99.90
35457;DHT22;21575;51.538;-0.084;2022-09-27T14:49:49;14.10;99.90
35457;DHT22;21575;51.538;-0.084;2022-09-27T14:52:17;14.10;99.90
35457;DHT22;21575;51.538;-0.084;2022-09-27T14:54:43;14.10;99.90
35457;DHT22;21575;51.538;-0.084;2022-09-27T14:57:14;14.10;99.90
35457;DHT22;21575;51.538;-0.084;2022-09-27T14:59:41;14.20;99.90
35457;DHT22;21575;51.538;-0.084;2022-09-27T15:02:17;14.10;99.90
35457;DHT22;21575;51.538;-0.084;2022-09-27T15:04:45;14.10;99.90
35457;DHT22;21575;51.538;-0.084;2022-09-27T15:07:12;14.10;99.90
35457;DHT22;21575;51.538;-0.084;2022-09-27T15:09:41;14.10;99.90
35457;DHT22;21575;51.538;-0.084;2022-09-27T15:12:08;14.10;99.90
35457;DHT22;21575;51.538;-0.084;2022-09-27T15:14:35;14.00;99.90
35457;DHT22;21575;51.538;-0.084;2022-09-27T15:17:12;13.90;99.90
35457;DHT22;21575;51.538;-0.084;2022-09-27T15:19:38;13.60;99.90
35457;DHT22;21575;51.538;-0.084;2022-09-27T15:22:30;13.20;99.90
35457;DHT22;21575;51.538;-0.084;2022-09-27T15:27:52;12.50;99.90
35457;DHT22;21575;51.538;-0.084;2022-09-27T15:30:42;12.40;99.90
35457;DHT22;21575;51.538;-0.084;2022-09-27T15:33:28;12.30;99.90
35457;DHT22;21575;51.538;-0.084;2022-09-27T15:35:58;12.20;99.90
35457;DHT22;21575;51.538;-0.084;2022-09-27T15:38:30;12.10;99.90
35457;DHT22;21575;51.538;-0.084;2022-09-27T15:41:00;12.00;99.90
35457;DHT22;21575;51.538;-0.084;2022-09-27T15:46:03;11.90;99.90
35457;DHT22;21575;51.538;-0.084;2022-09-27T15:48:33;11.90;99.90
35457;DHT22;21575;51.538;-0.084;2022-09-27T15:51:01;11.90;99.90
35457;DHT22;21575;51.538;-0.084;2022-09-27T15:56:00;12.00;99.90
35457;DHT22;21575;51.538;-0.084;2022-09-27T15:58:27;12.00;99.90
35457;DHT22;21575;51.538;-0.084;2022-09-27T16:00:58;12.00;99.90
35457;DHT22;21575;51.538;-0.084;2022-09-27T16:03:25;12.10;99.90
35457;DHT22;21575;51.538;-0.084;2022-09-27T16:05:52;12.10;99.90
35457;DHT22;21575;51.538;-0.084;2022-09-27T16:08:20;12.10;99.90
35457;DHT22;21575;51.538;-0.084;2022-09-27T16:10:57;12.10;99.90
35457;DHT22;21575;51.538;-0.084;2022-09-27T16:13:24;12.20;99.90
35457;DHT22;21575;51.538;-0.084;2022-09-27T16:15:50;12.20;99.90
35457;DHT22;21575;51.538;-0.084;2022-09-27T16:18:16;12.30;99.90
35457;DHT22;21575;51.538;-0.084;2022-09-27T16:20:42;12.30;99.90
35457;DHT22;21575;51.538;-0.084;2022-09-27T16:23:08;12.40;99.90
35457;DHT22;21575;51.538;-0.084;2022-09-27T16:25:33;12.40;99.90
35457;DHT22;21575;51.538;-0.084;2022-09-27T16:28:00;12.40;99.90
35457;DHT22;21575;51.538;-0.084;2022-09-27T16:30:27;12.40;99.90
35457;DHT22;21575;51.538;-0.084;2022-09-27T16:32:53;12.40;99.90
35457;DHT22;21575;51.538;-0.084;2022-09-27T16:35:21;12.40;99.90
35457;DHT22;21575;51.538;-0.084;2022-09-27T16:37:48;12.40;99.90
35457;DHT22;21575;51.538;-0.084;2022-09-27T16:40:14;12.40;99.90
35457;DHT22;21575;51.538;-0.084;2022-09-27T16:42:43;12.40;99.90
35457;DHT22;21575;51.538;-0.084;2022-09-27T16:45:09;12.40;99.90
35457;DHT22;21575;51.538;-0.084;2022-09-27T16:47:35;12.40;99.90
35457;DHT22;21575;51.538;-0.084;2022-09-27T16:50:02;12.50;99.90
35457;DHT22;21575;51.538;-0.084;2022-09-27T16:52:47;12.50;99.90
35457;DHT22;21575;51.538;-0.084;2022-09-27T16:55:15;12.50;99.90
35457;DHT22;21575;51.538;-0.084;2022-09-27T16:57:49;12.50;99.90
35457;DHT22;21575;51.538;-0.084;2022-09-27T17:00:16;12.50;99.90
35457;DHT22;21575;51.538;-0.084;2022-09-27T17:02:42;12.50;99.90
35457;DHT22;21575;51.538;-0.084;2022-09-27T17:05:11;12.50;99.90
35457;DHT22;21575;51.538;-0.084;2022-09-27T17:07:37;12.50;99.90
35457;DHT22;21575;51.538;-0.084;2022-09-27T17:10:03;12.50;99.90
35457;DHT22;21575;51.538;-0.084;2022-09-27T17:12:30;12.50;99.90
35457;DHT22;21575;51.538;-0.084;2022-09-27T17:14:56;12.60;99.90
35457;DHT22;21575;51.538;-0.084;2022-09-27T17:17:22;12.60;99.90
35457;DHT22;21575;51.538;-0.084;2022-09-27T17:19:48;12.60;99.90
35457;DHT22;21575;51.538;-0.084;2022-09-27T17:22:13;12.50;99.90
35457;DHT22;21575;51.538;-0.084;2022-09-27T17:24:39;12.50;99.90
35457;DHT22;21575;51.538;-0.084;2022-09-27T17:27:05;12.50;99.90
35457;DHT22;21575;51.538;-0.084;2022-09-27T17:29:30;12.40;99.90
35457;DHT22;21575;51.538;-0.084;2022-09-27T17:31:56;12.40;99.90
35457;DHT22;21575;51.538;-0.084;2022-09-27T17:34:21;12.30;99.90
35457;DHT22;21575;51.538;-0.084;2022-09-27T17:36:47;12.20;99.90
35457;DHT22;21575;51.538;-0.084;2022-09-27T17:39:16;12.20;99.90
35457;DHT22;21575;51.538;-0.084;2022-09-27T17:41:42;12.20;99.90
35457;DHT22;21575;51.538;-0.084;2022-09-27T17:44:13;12.20;99.90
35457;DHT22;21575;51.538;-0.084;2022-09-27T17:46:39;12.10;99.90
35457;DHT22;21575;51.538;-0.084;2022-09-27T17:49:05;12.10;99.90
35457;DHT22;21575;51.538;-0.084;2022-09-27T17:51:51;12.10;99.90
35457;DHT22;21575;51.538;-0.084;2022-09-27T17:54:20;12.10;99.90
35457;DHT22;21575;51.538;-0.084;2022-09-27T17:56:47;12.00;99.90
35457;DHT22;21575;51.538;-0.084;2022-09-27T17:59:13;12.00;99.90
35457;DHT22;21575;51.538;-0.084;2022-09-27T18:01:44;11.90;99.90
35457;DHT22;21575;51.538;-0.084;2022-09-27T18:04:11;11.90;99.90
35457;DHT22;21575;51.538;-0.084;2022-09-27T18:06:39;11.80;99.90
35457;DHT22;21575;51.538;-0.084;2022-09-27T18:09:05;11.80;99.90
35457;DHT22;21575;51.538;-0.084;2022-09-27T18:11:33;11.80;99.90
35457;DHT22;21575;51.538;-0.084;2022-09-27T18:14:00;11.70;99.90
35457;DHT22;21575;51.538;-0.084;2022-09-27T18:16:30;11.70;99.90
35457;DHT22;21575;51.538;-0.084;2022-09-27T18:19:03;11.70;99.90
35457;DHT22;21575;51.538;-0.084;2022-09-27T18:21:30;11.60;99.90
35457;DHT22;21575;51.538;-0.084;2022-09-27T18:23:57;11.60;99.90
35457;DHT22;21575;51.538;-0.084;2022-09-27T18:26:24;11.60;99.90
35457;DHT22;21575;51.538;-0.084;2022-09-27T18:28:53;11.50;99.90